CMA CGM Amber — 2BHA6 — position and weather

sailwx.info

Track history (hours):
 
Tides and Currents Weather Stations Pressure Air Temp Water Temp Dewpoint Dewpoint Depression Visibility Wind Speed Wind Dir Waves Ship Positions

CMA CGM Amber

Last reported at 2017-Dec-12 03:44 UTC. Time now 2017-Dec-16 07:20 UTC.
Position N 26°12' W 079°15'.

Length 281 m; draft 10.1 m.

Type: Ship (hazmat cat A). MMSI: 235066053.

Date/timePositionNaut miles runAvg speedWind from/ knotsBaromVisibWave heightAir tempDewpointWater temp
2017-Dec-12 03:44N 26°12' W 079°15'415.4
2017-Dec-12 03:30N 26°11' W 079°19'815.6
2017-Dec-12 03:00N 26°07' W 079°26'815.1
2017-Dec-12 02:30N 26°03' W 079°34'613.0
2017-Dec-12 02:00N 25°59' W 079°40'713.2
2017-Dec-12 01:30N 25°56' W 079°46'613.1
2017-Dec-12 01:00N 25°52' W 079°52'713.1
2017-Dec-12 00:30N 25°49' W 079°58'612.1
2017-Dec-12 00:01N 25°46' W 080°04'4 8.2
2017-Dec-11 23:31N 25°46' W 080°08'1 1.1
2017-Dec-11 22:58N 25°46' W 080°09'0 0.0
2017-Dec-11 22:28N 25°46' W 080°09'0 0.0
2017-Dec-11 21:55N 25°46' W 080°09'0 0.0
2017-Dec-11 21:28N 25°46' W 080°09'0 0.0
2017-Dec-11 21:00N 25°46' W 080°09'0 0.0
2017-Dec-11 20:27N 25°46' W 080°09'0 0.0
2017-Dec-11 20:00N 25°46' W 080°09'0 0.0
2017-Dec-11 19:30N 25°46' W 080°09'0 0.0
2017-Dec-11 19:00N 25°46' W 080°09'0 0.0
2017-Dec-11 18:29N 25°46' W 080°09'0 0.0
2017-Dec-11 17:56N 25°46' W 080°09'0 0.0
2017-Dec-11 17:29N 25°46' W 080°09'0 0.0
2017-Dec-11 16:56N 25°46' W 080°09'0 0.0
2017-Dec-11 16:29N 25°46' W 080°09'0 0.0
2017-Dec-11 15:58N 25°46' W 080°09'0 0.0
2017-Dec-11 15:28N 25°46' W 080°09'0 0.0
2017-Dec-11 14:55N 25°46' W 080°09'0 0.0
2017-Dec-11 14:28N 25°46' W 080°09'0 0.0
2017-Dec-11 14:00N 25°46' W 080°09'0 0.0
2017-Dec-11 13:30N 25°46' W 080°09'0 0.0
2017-Dec-11 13:00N 25°46' W 080°09'0 0.0
2017-Dec-11 12:30N 25°46' W 080°09'0 0.0
2017-Dec-11 12:00N 25°46' W 080°09'2 3.2
2017-Dec-11 11:30N 25°46' W 080°07'510.3
2017-Dec-11 11:01N 25°47' W 080°02'5 9.3
2017-Dec-11 10:30N 25°51' W 079°60'714.6
2017-Dec-11 10:01N 25°58' W 079°58'816.9
2017-Dec-11 09:31N 26°06' W 079°56'815.9
2017-Dec-11 09:00N 26°14' W 079°54'713.8
2017-Dec-11 08:30N 26°21' W 079°52'713.5
2017-Dec-11 08:00N 26°27' W 079°50'713.3
2017-Dec-11 07:30N 26°34' W 079°50'713.7
2017-Dec-11 07:00N 26°41' W 079°50'714.3
2017-Dec-11 06:31N 26°48' W 079°50'714.6
2017-Dec-11 06:00N 26°55' W 079°50'815.6
2017-Dec-11 05:28N 27°04' W 079°50'29414.4
2017-Dec-10 09:02N 31°56' W 080°21'0 9.5
2017-Dec-10 09:00N 31°56' W 080°21'5 9.4
2017-Dec-10 08:30N 31°56' W 080°26'5 9.5
2017-Dec-10 08:00N 31°56' W 080°32'5 9.6
2017-Dec-10 07:30N 31°56' W 080°38'5 9.4
2017-Dec-10 07:00N 31°58' W 080°43'611.9
2017-Dec-10 06:30N 32°01' W 080°48'611.8
2017-Dec-10 06:00N 32°02' W 080°55'511.0
2017-Dec-10 05:31N 32°06' W 081°00'4 7.8
2017-Dec-10 05:01N 32°05' W 081°04'3 5.6
2017-Dec-10 04:31N 32°06' W 081°07'1 2.2
2017-Dec-10 03:51N 32°08' W 081°08'0 0.0
2017-Dec-10 03:26N 32°08' W 081°08'0 0.0
2017-Dec-10 02:56N 32°08' W 081°08'0 0.0
2017-Dec-10 02:14N 32°08' W 081°08'0 0.0
2017-Dec-10 01:56N 32°08' W 081°08'0 0.0
2017-Dec-10 01:26N 32°08' W 081°08'0 0.0
2017-Dec-10 00:55N 32°07' W 081°08'0 0.0
2017-Dec-10 00:25N 32°08' W 081°08'0 0.0
2017-Dec-09 23:55N 32°08' W 081°08'0 0.0
2017-Dec-09 23:25N 32°08' W 081°08'0 0.0
2017-Dec-09 22:55N 32°08' W 081°08'0 0.0
2017-Dec-09 22:30N 32°08' W 081°08'0 0.0
2017-Dec-09 22:00N 32°07' W 081°08'0 0.0
2017-Dec-09 21:30N 32°07' W 081°08'0 0.0
2017-Dec-09 21:00N 32°07' W 081°08'0 0.0
2017-Dec-09 20:29N 32°08' W 081°08'0 0.0
2017-Dec-09 19:41N 32°07' W 081°08'0 0.0
2017-Dec-09 19:29N 32°08' W 081°08'0 0.0
2017-Dec-09 18:59N 32°08' W 081°08'0 0.0
2017-Dec-09 18:29N 32°08' W 081°08'0 0.0
2017-Dec-09 17:58N 32°08' W 081°08'0 0.0
2017-Dec-09 17:28N 32°08' W 081°08'0 0.0
2017-Dec-09 16:58N 32°08' W 081°08'0 0.0
2017-Dec-09 16:28N 32°08' W 081°08'0 0.0
2017-Dec-09 15:58N 32°08' W 081°08'0 0.0
2017-Dec-09 15:27N 32°08' W 081°08'0 0.0
2017-Dec-09 14:57N 32°07' W 081°08'0 0.0
2017-Dec-09 14:27N 32°08' W 081°08'0 0.0
2017-Dec-09 14:00N 32°08' W 081°08'0 0.3
2017-Dec-09 13:30N 32°07' W 081°08'3 5.3
2017-Dec-09 13:00N 32°05' W 081°06'2 4.6
2017-Dec-09 12:30N 32°05' W 081°03'3 6.6
2017-Dec-09 12:00N 32°05' W 080°59'510.5
2017-Dec-09 11:30N 32°02' W 080°55'510.7
2017-Dec-09 11:00N 32°01' W 080°48'714.1
2017-Dec-09 10:31N 31°57' W 080°42'4 8.8
2017-Dec-09 10:00N 31°57' W 080°36'3 7.0
2017-Dec-09 09:30N 31°58' W 080°32'4 6.3
2017-Dec-09 08:55N 31°59' W 080°28'0 0.5
2017-Dec-09 08:25N 31°58' W 080°28'0 0.0
2017-Dec-09 07:59N 31°58' W 080°28'0 0.0
2017-Dec-09 07:30N 31°58' W 080°28'0 0.0
2017-Dec-09 07:00N 31°58' W 080°28'0 0.0
2017-Dec-09 06:30N 31°58' W 080°28'0 0.0
2017-Dec-09 06:00N 31°58' W 080°28'0 0.1
2017-Dec-09 05:30N 31°58' W 080°28'0 0.0
2017-Dec-09 04:59N 31°58' W 080°28'0 0.0
2017-Dec-09 03:59N 31°58' W 080°28'0 0.0
2017-Dec-09 03:29N 31°58' W 080°28'0 0.0
2017-Dec-09 02:52N 31°58' W 080°28'0 0.0
2017-Dec-09 01:10N 31°58' W 080°28'0 0.1
2017-Dec-09 00:58N 31°58' W 080°28'0 0.0
2017-Dec-08 23:51N 31°58' W 080°28'0 0.0
2017-Dec-08 23:21N 31°58' W 080°28'0 0.0
2017-Dec-08 22:51N 31°58' W 080°28'0 0.0
2017-Dec-08 22:26N 31°58' W 080°28'0 0.0
2017-Dec-08 21:32N 31°58' W 080°28'0 0.0
2017-Dec-08 20:44N 31°58' W 080°28'0 0.1
2017-Dec-08 20:26N 31°58' W 080°28'0 0.0
2017-Dec-08 19:55N 31°58' W 080°28'0 0.0
2017-Dec-08 19:25N 31°58' W 080°28'0 0.0
2017-Dec-08 18:55N 31°58' W 080°28'0 0.0
2017-Dec-08 18:25N 31°58' W 080°28'0 0.0
2017-Dec-08 18:01N 31°58' W 080°28'0 0.1
2017-Dec-08 17:24N 31°58' W 080°28'0 0.1
2017-Dec-08 16:54N 31°58' W 080°28'0 0.2
2017-Dec-08 16:30N 31°58' W 080°28'372 9.6
2017-Dec-07 01:42N 36°49' W 075°47'3 9.5
2017-Dec-07 01:23N 36°51' W 075°50'3 9.0
2017-Dec-07 01:00N 36°53' W 075°54'7 9.0
2017-Dec-07 00:17N 36°57' W 076°00'310.2
2017-Dec-07 00:00N 36°58' W 076°04'1314.6
2017-Dec-06 23:07N 36°58' W 076°20'111.1
2017-Dec-06 23:00N 36°57' W 076°20'2 2.9
2017-Dec-06 22:29N 36°56' W 076°20'0 0.0
2017-Dec-06 21:59N 36°56' W 076°20'0 0.0
2017-Dec-06 21:29N 36°56' W 076°20'0 0.0
2017-Dec-06 20:58N 36°56' W 076°20'  
2017-Dec-04 10:30N 40°39' W 074°09'2 4.6
2017-Dec-04 10:01N 40°39' W 074°06'3 6.3
2017-Dec-04 09:30N 40°37' W 074°03'713.3
2017-Dec-04 09:00N 40°31' W 073°59'611.5
2017-Dec-04 08:29N 40°28' W 073°52'  
Track history (hours):
 
Tides and Currents Weather Stations Pressure Air Temp Water Temp Dewpoint Dewpoint Depression Visibility Wind Speed Wind Dir Waves Ship Positions

CMA CGM Amber

Last reported at 2017-Dec-12 03:44 UTC. Time now 2017-Dec-16 07:20 UTC.
Position N 26°12' W 079°15'.

Length 281 m; draft 10.1 m.

Type: Ship (hazmat cat A). MMSI: 235066053.

Date/timePositionNaut miles runAvg speedWind from/ knotsBaromVisibWave heightAir tempDewpointWater temp
2017-Dec-12 03:44N 26°12' W 079°15'415.4
2017-Dec-12 03:30N 26°11' W 079°19'815.6
2017-Dec-12 03:00N 26°07' W 079°26'815.1
2017-Dec-12 02:30N 26°03' W 079°34'613.0
2017-Dec-12 02:00N 25°59' W 079°40'713.2
2017-Dec-12 01:30N 25°56' W 079°46'613.1
2017-Dec-12 01:00N 25°52' W 079°52'713.1
2017-Dec-12 00:30N 25°49' W 079°58'612.1
2017-Dec-12 00:01N 25°46' W 080°04'4 8.2
2017-Dec-11 23:31N 25°46' W 080°08'1 1.1
2017-Dec-11 22:58N 25°46' W 080°09'0 0.0
2017-Dec-11 22:28N 25°46' W 080°09'0 0.0
2017-Dec-11 21:55N 25°46' W 080°09'0 0.0
2017-Dec-11 21:28N 25°46' W 080°09'0 0.0
2017-Dec-11 21:00N 25°46' W 080°09'0 0.0
2017-Dec-11 20:27N 25°46' W 080°09'0 0.0
2017-Dec-11 20:00N 25°46' W 080°09'0 0.0
2017-Dec-11 19:30N 25°46' W 080°09'0 0.0
2017-Dec-11 19:00N 25°46' W 080°09'0 0.0
2017-Dec-11 18:29N 25°46' W 080°09'0 0.0
2017-Dec-11 17:56N 25°46' W 080°09'0 0.0
2017-Dec-11 17:29N 25°46' W 080°09'0 0.0
2017-Dec-11 16:56N 25°46' W 080°09'0 0.0
2017-Dec-11 16:29N 25°46' W 080°09'0 0.0
2017-Dec-11 15:58N 25°46' W 080°09'0 0.0
2017-Dec-11 15:28N 25°46' W 080°09'0 0.0
2017-Dec-11 14:55N 25°46' W 080°09'0 0.0
2017-Dec-11 14:28N 25°46' W 080°09'0 0.0
2017-Dec-11 14:00N 25°46' W 080°09'0 0.0
2017-Dec-11 13:30N 25°46' W 080°09'0 0.0
2017-Dec-11 13:00N 25°46' W 080°09'0 0.0
2017-Dec-11 12:30N 25°46' W 080°09'0 0.0
2017-Dec-11 12:00N 25°46' W 080°09'2 3.2
2017-Dec-11 11:30N 25°46' W 080°07'510.3
2017-Dec-11 11:01N 25°47' W 080°02'5 9.3
2017-Dec-11 10:30N 25°51' W 079°60'714.6
2017-Dec-11 10:01N 25°58' W 079°58'816.9
2017-Dec-11 09:31N 26°06' W 079°56'815.9
2017-Dec-11 09:00N 26°14' W 079°54'713.8
2017-Dec-11 08:30N 26°21' W 079°52'713.5
2017-Dec-11 08:00N 26°27' W 079°50'713.3
2017-Dec-11 07:30N 26°34' W 079°50'713.7
2017-Dec-11 07:00N 26°41' W 079°50'714.3
2017-Dec-11 06:31N 26°48' W 079°50'714.6
2017-Dec-11 06:00N 26°55' W 079°50'815.6
2017-Dec-11 05:28N 27°04' W 079°50'29414.4
2017-Dec-10 09:02N 31°56' W 080°21'0 9.5
2017-Dec-10 09:00N 31°56' W 080°21'5 9.4
2017-Dec-10 08:30N 31°56' W 080°26'5 9.5
2017-Dec-10 08:00N 31°56' W 080°32'5 9.6
2017-Dec-10 07:30N 31°56' W 080°38'5 9.4
2017-Dec-10 07:00N 31°58' W 080°43'611.9
2017-Dec-10 06:30N 32°01' W 080°48'611.8
2017-Dec-10 06:00N 32°02' W 080°55'511.0
2017-Dec-10 05:31N 32°06' W 081°00'4 7.8
2017-Dec-10 05:01N 32°05' W 081°04'3 5.6
2017-Dec-10 04:31N 32°06' W 081°07'1 2.2
2017-Dec-10 03:51N 32°08' W 081°08'0 0.0
2017-Dec-10 03:26N 32°08' W 081°08'0 0.0
2017-Dec-10 02:56N 32°08' W 081°08'0 0.0
2017-Dec-10 02:14N 32°08' W 081°08'0 0.0
2017-Dec-10 01:56N 32°08' W 081°08'0 0.0
2017-Dec-10 01:26N 32°08' W 081°08'0 0.0
2017-Dec-10 00:55N 32°07' W 081°08'0 0.0
2017-Dec-10 00:25N 32°08' W 081°08'0 0.0
2017-Dec-09 23:55N 32°08' W 081°08'0 0.0
2017-Dec-09 23:25N 32°08' W 081°08'0 0.0
2017-Dec-09 22:55N 32°08' W 081°08'0 0.0
2017-Dec-09 22:30N 32°08' W 081°08'0 0.0
2017-Dec-09 22:00N 32°07' W 081°08'0 0.0
2017-Dec-09 21:30N 32°07' W 081°08'0 0.0
2017-Dec-09 21:00N 32°07' W 081°08'0 0.0
2017-Dec-09 20:29N 32°08' W 081°08'0 0.0
2017-Dec-09 19:41N 32°07' W 081°08'0 0.0
2017-Dec-09 19:29N 32°08' W 081°08'0 0.0
2017-Dec-09 18:59N 32°08' W 081°08'0 0.0
2017-Dec-09 18:29N 32°08' W 081°08'0 0.0
2017-Dec-09 17:58N 32°08' W 081°08'0 0.0
2017-Dec-09 17:28N 32°08' W 081°08'0 0.0
2017-Dec-09 16:58N 32°08' W 081°08'0 0.0
2017-Dec-09 16:28N 32°08' W 081°08'0 0.0
2017-Dec-09 15:58N 32°08' W 081°08'0 0.0
2017-Dec-09 15:27N 32°08' W 081°08'0 0.0
2017-Dec-09 14:57N 32°07' W 081°08'0 0.0
2017-Dec-09 14:27N 32°08' W 081°08'0 0.0
2017-Dec-09 14:00N 32°08' W 081°08'0 0.3
2017-Dec-09 13:30N 32°07' W 081°08'3 5.3
2017-Dec-09 13:00N 32°05' W 081°06'2 4.6
2017-Dec-09 12:30N 32°05' W 081°03'3 6.6
2017-Dec-09 12:00N 32°05' W 080°59'510.5
2017-Dec-09 11:30N 32°02' W 080°55'510.7
2017-Dec-09 11:00N 32°01' W 080°48'714.1
2017-Dec-09 10:31N 31°57' W 080°42'4 8.8
2017-Dec-09 10:00N 31°57' W 080°36'3 7.0
2017-Dec-09 09:30N 31°58' W 080°32'4 6.3
2017-Dec-09 08:55N 31°59' W 080°28'0 0.5
2017-Dec-09 08:25N 31°58' W 080°28'0 0.0
2017-Dec-09 07:59N 31°58' W 080°28'0 0.0
2017-Dec-09 07:30N 31°58' W 080°28'0 0.0
2017-Dec-09 07:00N 31°58' W 080°28'0 0.0
2017-Dec-09 06:30N 31°58' W 080°28'0 0.0
2017-Dec-09 06:00N 31°58' W 080°28'0 0.1
2017-Dec-09 05:30N 31°58' W 080°28'0 0.0
2017-Dec-09 04:59N 31°58' W 080°28'0 0.0
2017-Dec-09 03:59N 31°58' W 080°28'0 0.0
2017-Dec-09 03:29N 31°58' W 080°28'0 0.0
2017-Dec-09 02:52N 31°58' W 080°28'0 0.0
2017-Dec-09 01:10N 31°58' W 080°28'0 0.1
2017-Dec-09 00:58N 31°58' W 080°28'0 0.0
2017-Dec-08 23:51N 31°58' W 080°28'0 0.0
2017-Dec-08 23:21N 31°58' W 080°28'0 0.0
2017-Dec-08 22:51N 31°58' W 080°28'0 0.0
2017-Dec-08 22:26N 31°58' W 080°28'0 0.0
2017-Dec-08 21:32N 31°58' W 080°28'0 0.0
2017-Dec-08 20:44N 31°58' W 080°28'0 0.1
2017-Dec-08 20:26N 31°58' W 080°28'0 0.0
2017-Dec-08 19:55N 31°58' W 080°28'0 0.0
2017-Dec-08 19:25N 31°58' W 080°28'0 0.0
2017-Dec-08 18:55N 31°58' W 080°28'0 0.0
2017-Dec-08 18:25N 31°58' W 080°28'0 0.0
2017-Dec-08 18:01N 31°58' W 080°28'0 0.1
2017-Dec-08 17:24N 31°58' W 080°28'0 0.1
2017-Dec-08 16:54N 31°58' W 080°28'0 0.2
2017-Dec-08 16:30N 31°58' W 080°28'372 9.6
2017-Dec-07 01:42N 36°49' W 075°47'3 9.5
2017-Dec-07 01:23N 36°51' W 075°50'3 9.0
2017-Dec-07 01:00N 36°53' W 075°54'7 9.0
2017-Dec-07 00:17N 36°57' W 076°00'310.2
2017-Dec-07 00:00N 36°58' W 076°04'1314.6
2017-Dec-06 23:07N 36°58' W 076°20'111.1
2017-Dec-06 23:00N 36°57' W 076°20'2 2.9
2017-Dec-06 22:29N 36°56' W 076°20'0 0.0
2017-Dec-06 21:59N 36°56' W 076°20'0 0.0
2017-Dec-06 21:29N 36°56' W 076°20'0 0.0
2017-Dec-06 20:58N 36°56' W 076°20'  
2017-Dec-04 10:30N 40°39' W 074°09'2 4.6
2017-Dec-04 10:01N 40°39' W 074°06'3 6.3
2017-Dec-04 09:30N 40°37' W 074°03'713.3
2017-Dec-04 09:00N 40°31' W 073°59'611.5
2017-Dec-04 08:29N 40°28' W 073°52'  

Dump ship's entire track history